Time;durP1;ratioP1;P1;durP2;ratioP2;P2;SDS_P1;SDS_P2;PMS_P1;PMS_P2;Temp;Humidity;BMP_temperature;BMP_pressure;BME280_temperature;BME280_humidity;BME280_pressure;Samples;Min_cycle;Max_cycle;Signal;HPM_P1;HPM_P2
2021/01/10 00:01:15;7480.00;0.02;13.58;0.00;0.00;0.62;;;;;5.40;1.00;;;;;;2261036;61;1412;-81
2021/01/10 00:03:42;24704.00;0.08;43.42;0.00;0.00;0.62;;;;;5.70;1.00;;;;;;2260515;61;1718;-84
2021/01/10 00:06:09;87892.00;0.29;152.67;0.00;0.00;0.62;;;;;5.70;1.00;;;;;;2260548;61;1076;-84
2021/01/10 00:08:36;74121.00;0.25;128.88;0.00;0.00;0.62;;;;;5.20;1.00;;;;;;2260296;61;1658;-82
2021/01/10 00:11:02;22741.00;0.08;40.02;0.00;0.00;0.62;;;;;4.60;1.00;;;;;;2260281;61;1462;-82
2021/01/10 00:13:30;54636.00;0.18;95.20;0.00;0.00;0.62;;;;;3.70;1.00;;;;;;2260411;61;1777;-84
2021/01/10 00:15:57;77849.00;0.26;135.32;0.00;0.00;0.62;;;;;4.10;1.00;;;;;;2260304;61;1151;-84
2021/01/10 00:18:24;143071.00;0.48;247.86;0.00;0.00;0.62;;;;;4.10;1.00;;;;;;2260490;61;1919;-83
2021/01/10 00:20:51;56095.00;0.19;97.73;0.00;0.00;0.62;;;;;4.10;1.00;;;;;;2260594;61;1360;-84
2021/01/10 00:23:17;46510.00;0.16;81.15;0.00;0.00;0.62;;;;;4.30;1.00;;;;;;2260933;61;1250;-84
2021/01/10 00:25:45;136771.00;0.46;237.00;0.00;0.00;0.62;;;;;4.00;1.00;;;;;;2260950;61;1225;-81
2021/01/10 00:28:11;77073.00;0.26;133.98;0.00;0.00;0.62;;;;;3.80;1.00;;;;;;2260828;61;1222;-84
2021/01/10 00:30:38;85947.00;0.29;149.31;0.00;0.00;0.62;;;;;3.70;1.00;;;;;;2260686;61;1305;-82
2021/01/10 00:33:05;74951.00;0.25;130.32;0.00;0.00;0.62;;;;;3.50;1.00;;;;;;2257001;61;1514;-84
2021/01/10 00:35:31;320839.00;1.07;553.74;23113.00;0.08;40.66;;;;;3.30;1.00;;;;;;2261565;61;1750;-83
2021/01/10 00:37:58;100251.00;0.33;174.01;0.00;0.00;0.62;;;;;3.10;1.00;;;;;;2260893;61;1944;-84
2021/01/10 00:40:26;225353.00;0.75;389.55;0.00;0.00;0.62;;;;;3.00;1.00;;;;;;2260934;61;937;-81
2021/01/10 00:42:54;176388.00;0.59;305.27;0.00;0.00;0.62;;;;;3.20;1.00;;;;;;2260998;61;985;-82
2021/01/10 00:45:20;144153.00;0.48;249.73;0.00;0.00;0.62;;;;;3.50;1.00;;;;;;2260935;61;1269;-83
2021/01/10 00:47:47;18663.00;0.06;32.95;0.00;0.00;0.62;;;;;3.50;1.00;;;;;;2260913;61;1127;-82
2021/01/10 00:50:14;39866.00;0.13;69.66;0.00;0.00;0.62;;;;;3.30;1.00;;;;;;2260460;61;1033;-83
2021/01/10 00:52:41;116010.00;0.39;201.20;0.00;0.00;0.62;;;;;3.30;1.00;;;;;;2260926;61;1333;-83
2021/01/10 00:55:08;108788.00;0.36;188.74;0.00;0.00;0.62;;;;;3.40;1.00;;;;;;2260918;61;994;-82
2021/01/10 00:57:35;154767.00;0.52;268.02;0.00;0.00;0.62;;;;;3.40;1.00;;;;;;2257143;61;2017;-84
2021/01/10 01:00:06;20493.00;0.07;36.12;0.00;0.00;0.62;;;;;3.50;1.00;;;;;;2260840;61;1156;-82
2021/01/10 01:02:33;171258.00;0.57;296.43;12841.00;0.04;22.87;;;;;2.60;1.00;;;;;;2260639;61;1461;-83
2021/01/10 01:04:59;166250.00;0.55;287.81;0.00;0.00;0.62;;;;;2.30;1.00;;;;;;2256399;61;1059;-81
2021/01/10 01:07:26;87535.00;0.29;152.05;0.00;0.00;0.62;;;;;2.30;1.00;;;;;;2256217;61;1041;-84
2021/01/10 01:09:52;168307.00;0.56;291.35;0.00;0.00;0.62;;;;;1.90;1.00;;;;;;2246686;61;1019;-84
2021/01/10 01:12:19;90011.00;0.30;156.33;0.00;0.00;0.62;;;;;2.30;1.00;;;;;;2256242;61;1430;-84
2021/01/10 01:14:45;66161.00;0.22;115.13;0.00;0.00;0.62;;;;;2.40;1.00;;;;;;2256478;61;1297;-84
2021/01/10 01:17:12;62613.00;0.21;108.99;0.00;0.00;0.62;;;;;1.80;1.00;;;;;;2256337;61;1920;-82
2021/01/10 01:19:39;94204.00;0.31;163.57;0.00;0.00;0.62;;;;;1.30;1.00;;;;;;2256449;61;1216;-84
2021/01/10 01:22:05;70321.00;0.23;122.32;0.00;0.00;0.62;;;;;1.00;1.00;;;;;;2249158;61;1395;-82
2021/01/10 01:24:32;53947.00;0.18;94.01;0.00;0.00;0.62;;;;;1.50;1.00;;;;;;2244490;61;1069;-84
2021/01/10 01:26:58;88898.00;0.30;154.40;18486.00;0.06;32.65;;;;;2.10;1.00;;;;;;2244562;61;1821;-82
2021/01/10 01:29:25;269167.00;0.90;464.91;7244.00;0.02;13.17;;;;;2.40;1.00;;;;;;2244452;61;1741;-83
2021/01/10 01:31:51;261604.00;0.87;451.91;14045.00;0.05;24.96;;;;;2.40;1.00;;;;;;2244575;61;1287;-84
2021/01/10 01:34:19;160685.00;0.54;278.22;0.00;0.00;0.62;;;;;2.50;1.00;;;;;;2236699;61;971;-83
2021/01/10 01:36:45;232992.00;0.78;402.70;40140.00;0.13;70.13;;;;;2.90;1.00;;;;;;2236582;61;1758;-82
2021/01/10 01:39:12;80904.00;0.27;140.60;0.00;0.00;0.62;;;;;2.90;1.00;;;;;;2237467;61;1959;-84
2021/01/10 01:41:38;15593.00;0.05;27.64;0.00;0.00;0.62;;;;;2.90;1.00;;;;;;2244897;61;1656;-84
2021/01/10 01:44:05;106400.00;0.35;184.62;0.00;0.00;0.62;;;;;2.30;1.00;;;;;;2246068;61;922;-84
2021/01/10 01:46:34;368131.00;1.23;635.02;0.00;0.00;0.62;;;;;2.20;1.00;;;;;;2252378;61;1022;-83
2021/01/10 01:49:06;88649.00;0.30;153.97;0.00;0.00;0.62;;;;;1.80;1.00;;;;;;2248615;61;1019;-82
2021/01/10 01:51:34;13344.00;0.04;23.74;0.00;0.00;0.62;;;;;2.30;1.00;;;;;;2247338;61;1453;-81
2021/01/10 01:54:02;62783.00;0.21;109.29;0.00;0.00;0.62;;;;;1.90;1.00;;;;;;2260682;61;1029;-83
2021/01/10 01:56:28;44692.00;0.15;78.01;0.00;0.00;0.62;;;;;1.50;1.00;;;;;;2252359;61;993;-84
2021/01/10 01:59:00;27142.00;0.09;47.64;0.00;0.00;0.62;;;;;1.40;1.00;;;;;;2246030;61;1908;-84
2021/01/10 02:01:29;1562.00;0.01;3.33;0.00;0.00;0.62;;;;;1.60;1.00;;;;;;2252653;61;1297;-83
2021/01/10 02:04:04;50971.00;0.17;88.87;0.00;0.00;0.62;;;;;1.50;1.00;;;;;;2242768;61;1080;-80
2021/01/10 02:06:42;27604.00;0.09;48.44;0.00;0.00;0.62;;;;;1.30;1.00;;;;;;2245619;61;1006;-81
2021/01/10 02:09:12;185888.00;0.62;321.63;0.00;0.00;0.62;;;;;1.40;1.00;;;;;;2245037;61;924;-81
2021/01/10 02:11:43;104384.00;0.35;181.14;0.00;0.00;0.62;;;;;1.70;1.00;;;;;;2248236;61;1413;-83
2021/01/10 02:16:39;150563.00;0.50;260.78;0.00;0.00;0.62;;;;;1.70;1.00;;;;;;2267530;61;1423;-82
2021/01/10 02:19:17;148265.00;0.49;256.82;0.00;0.00;0.62;;;;;1.50;1.00;;;;;;2261008;61;1928;-81
2021/01/10 02:21:47;235767.00;0.79;407.47;34828.00;0.12;60.94;;;;;1.20;1.00;;;;;;2261074;61;1407;-83
2021/01/10 02:24:14;122909.00;0.41;213.10;0.00;0.00;0.62;;;;;0.90;1.00;;;;;;2261044;61;1029;-83
2021/01/10 02:26:42;23311.00;0.08;41.00;0.00;0.00;0.62;;;;;0.60;1.00;;;;;;2253116;61;1033;-83
2021/01/10 02:29:10;113315.00;0.38;196.55;0.00;0.00;0.62;;;;;0.50;1.00;;;;;;2252977;61;1128;-84
2021/01/10 02:31:40;24433.00;0.08;42.95;0.00;0.00;0.62;;;;;0.60;1.00;;;;;;2253161;61;1355;-84
2021/01/10 02:34:10;198215.00;0.66;342.85;0.00;0.00;0.62;;;;;0.50;1.00;;;;;;2253051;61;1602;-84
2021/01/10 02:36:58;61166.00;0.20;106.49;0.00;0.00;0.62;;;;;0.30;1.00;;;;;;2255311;61;1058;-84
2021/01/10 02:39:33;332883.00;1.11;574.44;94340.00;0.31;163.80;;;;;0.60;1.00;;;;;;2256920;61;1928;-83
2021/01/10 02:42:08;212945.00;0.71;368.20;0.00;0.00;0.62;;;;;0.50;1.00;;;;;;2257066;61;1760;-83
2021/01/10 02:44:38;230297.00;0.77;398.06;92160.00;0.31;160.04;;;;;0.50;1.00;;;;;;2260725;61;1095;-84
2021/01/10 02:47:07;159446.00;0.53;276.08;0.00;0.00;0.62;;;;;0.60;1.00;;;;;;2264946;61;1645;-84
2021/01/10 02:49:34;208000.00;0.69;359.69;14544.00;0.05;25.82;;;;;0.70;1.00;;;;;;2260895;61;978;-83
2021/01/10 02:52:01;61239.00;0.20;106.62;0.00;0.00;0.62;;;;;0.80;1.00;;;;;;2260507;61;1696;-83
2021/01/10 02:54:29;159249.00;0.53;275.75;0.00;0.00;0.62;;;;;1.30;1.00;;;;;;2260869;61;1120;-82
2021/01/10 02:57:01;75679.00;0.25;131.57;0.00;0.00;0.62;;;;;1.20;1.00;;;;;;2261871;61;1015;-82
2021/01/10 02:59:32;122930480.00;409.77;75259656.00;122721888.00;409.07;74876832.00;;;;;1.20;1.00;;;;;;2264876;61;1991;-81
2021/01/10 03:02:02;325342.00;1.08;561.48;93895.00;0.31;163.03;;;;;1.40;1.00;;;;;;2264853;61;1408;-80
2021/01/10 03:04:30;284761.00;0.95;491.72;88467.00;0.29;153.66;;;;;1.40;1.00;;;;;;2264959;61;1033;-83
2021/01/10 03:06:59;302212.00;1.01;521.72;88767.00;0.30;154.18;;;;;1.40;1.00;;;;;;2261889;61;982;-82
2021/01/10 03:09:26;305429.00;1.02;527.25;97383.00;0.32;169.05;;;;;1.50;1.00;;;;;;2265075;61;1611;-79
2021/01/10 03:11:54;437676.00;1.46;754.59;90158.00;0.30;156.58;;;;;1.60;1.00;;;;;;2261585;61;1444;-84
2021/01/10 03:14:20;234231.00;0.78;404.83;87659.00;0.29;152.27;;;;;1.70;1.00;;;;;;2261555;61;971;-84
2021/01/10 03:16:49;352609.00;1.18;608.35;94462.00;0.31;164.01;;;;;1.50;1.00;;;;;;2265328;61;993;-84
2021/01/10 03:19:16;379908.00;1.27;655.27;107125.00;0.36;185.87;;;;;1.50;1.00;;;;;;2265252;61;1998;-84
2021/01/10 03:21:43;223926.00;0.75;387.10;102129.00;0.34;177.25;;;;;1.50;1.00;;;;;;2264611;61;1349;-83
2021/01/10 03:24:10;461453.00;1.54;795.48;113133.00;0.38;196.24;;;;;1.90;1.00;;;;;;2260415;61;990;-83
2021/01/10 03:26:36;196149.00;0.65;339.29;98421.00;0.33;170.85;;;;;2.50;1.00;;;;;;2260562;61;941;-82
2021/01/10 03:29:03;307580.00;1.03;530.95;101183.00;0.34;175.61;;;;;1.70;1.00;;;;;;2256529;61;1732;-84
2021/01/10 03:31:30;209186.00;0.70;361.73;86049.00;0.29;149.48;;;;;1.60;1.00;;;;;;2256398;61;1393;-85
2021/01/10 03:33:56;210325.00;0.70;363.69;95317.00;0.32;165.49;;;;;1.70;1.00;;;;;;2256437;61;1037;-85
2021/01/10 03:36:23;314360.00;1.05;542.60;88552.00;0.30;153.81;;;;;1.60;1.00;;;;;;2248682;61;1043;-82
2021/01/10 03:38:50;179842.00;0.60;311.22;99165.00;0.33;172.13;;;;;1.40;1.00;;;;;;2248893;61;1993;-83
2021/01/10 03:41:17;183730.00;0.61;317.91;88572.00;0.30;153.84;;;;;1.40;1.00;;;;;;2248632;61;1300;-80
2021/01/10 03:43:43;344534.00;1.15;594.47;91836.00;0.31;159.48;;;;;1.50;1.00;;;;;;2237198;62;1044;-81
2021/01/10 03:46:10;292461.00;0.97;504.96;94360.00;0.31;163.84;;;;;1.40;1.00;;;;;;2232842;62;975;-83
2021/01/10 03:48:37;191894.00;0.64;331.97;92736.00;0.31;161.03;;;;;2.40;1.00;;;;;;2232722;62;1604;-82
2021/01/10 03:51:04;246033.00;0.82;425.13;91458.00;0.30;158.83;;;;;2.90;1.00;;;;;;2232851;62;1299;-84
2021/01/10 03:53:32;188355.00;0.63;325.88;92905.00;0.31;161.32;;;;;2.40;1.00;;;;;;2233752;62;1014;-84
2021/01/10 03:55:58;245315.00;0.82;423.89;85551.00;0.29;148.62;;;;;2.90;1.00;;;;;;2240804;62;1203;-83
2021/01/10 03:58:25;212413.00;0.71;367.29;84359.00;0.28;146.57;;;;;3.00;1.00;;;;;;2241506;61;1932;-84
2021/01/10 04:00:51;244098.00;0.81;421.80;94915.00;0.32;164.79;;;;;2.80;1.00;;;;;;2249985;61;1744;-84
2021/01/10 04:03:19;267958.00;0.89;462.83;93897.00;0.31;163.04;;;;;3.10;1.00;;;;;;2261020;61;1631;-83
2021/01/10 04:05:45;244491.00;0.81;422.48;95905.00;0.32;166.50;;;;;2.90;1.00;;;;;;2265022;61;1788;-84
2021/01/10 04:08:12;270539.00;0.90;467.27;91822.00;0.31;159.45;;;;;3.20;1.00;;;;;;2264990;61;1639;-84
2021/01/10 04:10:38;238748.00;0.80;412.60;80870.00;0.27;140.54;;;;;3.30;1.00;;;;;;2265008;61;1404;-83
2021/01/10 04:13:05;273403.00;0.91;472.20;114290.00;0.38;198.23;;;;;2.80;1.00;;;;;;2265012;61;1022;-83
2021/01/10 04:15:31;259424.00;0.86;448.16;94642.00;0.32;164.32;;;;;2.50;1.00;;;;;;2265094;61;934;-82
2021/01/10 04:18:00;278814.00;0.93;481.50;109609.00;0.37;190.16;;;;;2.80;1.00;;;;;;2265034;61;1908;-85
2021/01/10 04:20:27;248200.00;0.83;428.86;95680.00;0.32;166.11;;;;;3.10;1.00;;;;;;2264848;61;1198;-83
2021/01/10 04:22:54;227399.00;0.76;393.07;91104.00;0.30;158.21;;;;;2.80;1.00;;;;;;2265159;61;1116;-82
2021/01/10 04:25:21;215196.00;0.72;372.08;99836.00;0.33;173.29;;;;;2.30;1.00;;;;;;2264667;61;1753;-83
2021/01/10 04:27:48;334646.00;1.12;577.47;85602.00;0.29;148.71;;;;;1.70;1.00;;;;;;2265089;61;1284;-83
2021/01/10 04:30:15;303335.00;1.01;523.65;105483.00;0.35;183.04;;;;;1.80;1.00;;;;;;2265172;61;1107;-83
2021/01/10 04:32:41;364050.00;1.21;628.01;102144.00;0.34;177.27;;;;;2.10;1.00;;;;;;2264399;61;1363;-84
2021/01/10 04:35:09;240828.00;0.80;416.18;84164.00;0.28;146.23;;;;;2.20;1.00;;;;;;2264486;61;1059;-82
2021/01/10 04:37:36;396096.00;1.32;683.09;97915.00;0.33;169.97;;;;;1.80;1.00;;;;;;2379791;40;4148;31
2021/01/10 04:40:03;307923.00;1.03;531.54;126068.00;0.42;218.55;;;;;1.80;1.00;;;;;;2262097;61;1353;-84
2021/01/10 04:42:31;323961.00;1.08;559.11;101127.00;0.34;175.52;;;;;1.90;1.00;;;;;;2260519;61;1437;-83
2021/01/10 04:44:59;253906.00;0.85;438.67;97980.00;0.33;170.08;;;;;1.50;1.00;;;;;;2253848;61;1001;-84
2021/01/10 04:47:26;375938.00;1.25;648.44;105884.00;0.35;183.73;;;;;1.30;1.00;;;;;;2264533;61;1057;-83
2021/01/10 04:49:53;117304136.00;391.01;65383420.00;85723.00;0.29;148.92;;;;;1.50;1.00;;;;;;2254878;61;1053;-83
2021/01/10 04:52:21;264251.00;0.88;456.46;95533.00;0.32;165.86;;;;;1.40;1.00;;;;;;2264533;61;1353;-82
2021/01/10 04:54:51;305763.00;1.02;527.83;96492.00;0.32;167.52;;;;;1.20;1.00;;;;;;2264501;61;988;-83
2021/01/10 04:57:21;382211.00;1.27;659.23;93364.00;0.31;162.12;;;;;1.20;1.00;;;;;;2263853;61;985;-83
2021/01/10 04:59:50;501966.00;1.67;865.21;95680.00;0.32;166.11;;;;;1.40;1.00;;;;;;2260253;61;1932;-83
2021/01/10 05:04:45;530148.00;1.77;913.75;90045.00;0.30;156.39;;;;;1.50;1.00;;;;;;2263507;61;1314;-87
2021/01/10 05:07:11;337038.00;1.12;581.58;93326.00;0.31;162.05;;;;;1.50;1.00;;;;;;2261121;61;1033;-85
2021/01/10 05:09:39;199888.00;0.67;345.73;94790.00;0.32;164.58;;;;;1.40;1.00;;;;;;2261119;61;1076;-82
2021/01/10 05:12:07;28219.00;0.09;49.50;0.00;0.00;0.62;;;;;1.80;1.00;;;;;;2256407;61;1254;-81
2021/01/10 05:14:33;53492.00;0.18;93.22;0.00;0.00;0.62;;;;;2.50;1.00;;;;;;2244715;61;1043;-82
2021/01/10 05:17:00;51749.00;0.17;90.21;0.00;0.00;0.62;;;;;3.00;1.00;;;;;;2241306;61;1050;-83
2021/01/10 05:19:30;21919.00;0.07;38.59;0.00;0.00;0.62;;;;;2.40;1.00;;;;;;2244438;61;1937;-84
2021/01/10 05:22:05;288874.00;0.96;498.79;89067.00;0.30;154.70;;;;;1.90;1.00;;;;;;2240704;62;1335;-83
2021/01/10 05:24:31;254082.00;0.85;438.97;97153.00;0.32;168.66;;;;;2.20;1.00;;;;;;2240670;62;1058;-82
2021/01/10 05:26:58;559770.00;1.87;964.80;110020.00;0.37;190.86;;;;;2.10;1.00;;;;;;2234259;62;1035;-84
2021/01/10 05:29:27;350074.00;1.17;603.99;99631.00;0.33;172.93;;;;;2.00;1.00;;;;;;2242278;61;1042;-83
2021/01/10 05:31:54;243302.00;0.81;420.43;86394.00;0.29;150.08;;;;;1.80;1.00;;;;;;2249496;61;1464;-83
2021/01/10 05:34:22;10309.00;0.03;18.48;0.00;0.00;0.62;;;;;1.80;1.00;;;;;;2245952;61;1188;-82
2021/01/10 05:36:49;279763.00;0.93;483.13;0.00;0.00;0.62;;;;;2.30;1.00;;;;;;2240622;61;1057;-81
2021/01/10 05:39:18;0.00;0.00;0.62;0.00;0.00;0.62;;;;;2.40;1.00;;;;;;2243062;61;1979;-83
2021/01/10 05:41:54;212055.00;0.71;366.67;41030.00;0.14;71.67;;;;;3.00;1.00;;;;;;2252718;61;1373;-84
2021/01/10 05:44:21;48460.00;0.16;84.52;0.00;0.00;0.62;;;;;3.40;1.00;;;;;;2252755;61;1721;-82
2021/01/10 05:46:49;0.00;0.00;0.62;0.00;0.00;0.62;;;;;3.40;1.00;;;;;;2252763;61;1093;-84
2021/01/10 05:49:20;166903.00;0.56;288.93;0.00;0.00;0.62;;;;;3.70;1.00;;;;;;2252686;61;1065;-84
2021/01/10 05:51:48;63042.00;0.21;109.74;0.00;0.00;0.62;;;;;4.30;1.00;;;;;;2252419;61;1376;-84
2021/01/10 05:54:34;0.00;0.00;0.62;0.00;0.00;0.62;;;;;3.90;1.00;;;;;;2254850;61;959;-85
2021/01/10 05:57:02;0.00;0.00;0.62;0.00;0.00;0.62;;;;;4.20;1.00;;;;;;2260370;61;1050;-85
2021/01/10 05:59:32;8117.00;0.03;14.69;0.00;0.00;0.62;;;;;4.70;1.00;;;;;;2252670;61;1995;-82
2021/01/10 06:02:01;82425.00;0.27;143.23;0.00;0.00;0.62;;;;;4.60;1.00;;;;;;2248621;61;1360;-83
2021/01/10 06:04:28;126162.00;0.42;218.71;0.00;0.00;0.62;;;;;4.00;1.00;;;;;;2248608;61;1852;-83
2021/01/10 06:06:56;39452.00;0.13;68.94;0.00;0.00;0.62;;;;;3.60;1.00;;;;;;2248890;61;1306;-82
2021/01/10 06:09:23;47278.00;0.16;82.48;0.00;0.00;0.62;;;;;3.70;1.00;;;;;;2248817;61;1417;-83
2021/01/10 06:11:49;20893.00;0.07;36.82;0.00;0.00;0.62;;;;;3.80;1.00;;;;;;2248901;61;1304;-83
2021/01/10 06:14:24;96797.00;0.32;168.04;0.00;0.00;0.62;;;;;4.10;1.00;;;;;;2249461;61;1771;-82
2021/01/10 06:16:55;0.00;0.00;0.62;0.00;0.00;0.62;;;;;4.40;1.00;;;;;;2253436;61;1018;-84
2021/01/10 06:19:30;21478.00;0.07;37.83;0.00;0.00;0.62;;;;;4.90;1.00;;;;;;2257386;61;1993;-82
2021/01/10 06:21:59;85283.00;0.28;148.16;0.00;0.00;0.62;;;;;5.00;1.00;;;;;;2260369;61;1385;-83
2021/01/10 06:24:33;39034.00;0.13;68.22;0.00;0.00;0.62;;;;;4.30;1.00;;;;;;2257099;61;983;-84
2021/01/10 06:27:04;0.00;0.00;0.62;0.00;0.00;0.62;;;;;4.60;1.00;;;;;;2260822;61;1785;-84
2021/01/10 06:29:40;183869.00;0.61;318.15;0.00;0.00;0.62;;;;;4.80;1.00;;;;;;2256369;61;1037;-83
2021/01/10 06:32:11;118093.00;0.39;204.79;0.00;0.00;0.62;;;;;3.90;1.00;;;;;;2253074;61;1456;-82
2021/01/10 06:39:39;24556.00;0.08;43.16;0.00;0.00;0.62;;;;;4.60;1.00;;;;;;2265880;61;1912;-84
2021/01/10 06:42:13;91334.00;0.30;158.61;0.00;0.00;0.62;;;;;4.10;1.00;;;;;;2264035;61;1355;-85
2021/01/10 06:44:42;127332.00;0.42;220.73;0.00;0.00;0.62;;;;;4.20;1.00;;;;;;2257132;61;974;-84
2021/01/10 06:47:20;34585.00;0.12;60.52;0.00;0.00;0.62;;;;;4.60;1.00;;;;;;2254363;61;993;-84
2021/01/10 06:49:46;51322.00;0.17;89.47;0.00;0.00;0.62;;;;;4.90;1.00;;;;;;2257438;61;1011;-83
2021/01/10 06:52:16;0.00;0.00;0.62;0.00;0.00;0.62;;;;;5.10;1.00;;;;;;2251818;61;1345;-83
2021/01/10 06:54:45;160573.00;0.54;278.03;0.00;0.00;0.62;;;;;5.50;1.00;;;;;;2251680;61;1529;-83
2021/01/10 06:57:13;34278.00;0.11;59.99;0.00;0.00;0.62;;;;;4.40;1.00;;;;;;2251908;61;1738;-83
2021/01/10 06:59:56;67363.00;0.22;117.20;0.00;0.00;0.62;;;;;4.60;1.00;;;;;;2253310;61;2020;-84
2021/01/10 07:02:23;32766.00;0.11;57.37;0.00;0.00;0.62;;;;;5.10;1.00;;;;;;2247331;61;1501;-84
2021/01/10 07:04:57;9786.00;0.03;17.58;0.00;0.00;0.62;;;;;5.00;1.00;;;;;;2253244;61;1061;-84
2021/01/10 07:07:41;58503.00;0.20;101.89;0.00;0.00;0.62;;;;;4.90;1.00;;;;;;2253007;61;1148;-83
2021/01/10 07:10:24;31962.00;0.11;55.98;0.00;0.00;0.62;;;;;5.20;1.00;;;;;;2255281;61;1035;-84
2021/01/10 07:12:51;40371.00;0.13;70.53;0.00;0.00;0.62;;;;;5.70;1.00;;;;;;2264838;61;1684;-83
2021/01/10 07:15:29;78591.00;0.26;136.60;0.00;0.00;0.62;;;;;5.40;1.00;;;;;;2257117;61;1022;-83
2021/01/10 07:18:09;101545.00;0.34;176.24;0.00;0.00;0.62;;;;;5.00;1.00;;;;;;2250156;61;2031;-83
2021/01/10 07:20:44;0.00;0.00;0.62;0.00;0.00;0.62;;;;;4.50;1.00;;;;;;2257131;61;1413;-84
2021/01/10 07:23:30;121803.00;0.41;211.19;25837.00;0.09;45.38;;;;;4.10;1.00;;;;;;2252898;61;1006;-82
2021/01/10 07:25:59;33939.00;0.11;59.40;0.00;0.00;0.62;;;;;3.30;1.00;;;;;;2260685;61;979;-84
2021/01/10 07:28:49;95134.00;0.32;165.17;0.00;0.00;0.62;;;;;3.50;1.00;;;;;;2260759;61;1117;-84
2021/01/10 07:31:20;142884.00;0.48;247.54;0.00;0.00;0.62;;;;;3.90;1.00;;;;;;2260211;61;1341;-83
2021/01/10 07:34:07;19658.00;0.07;34.68;0.00;0.00;0.62;;;;;4.20;1.00;;;;;;2263508;61;1723;-84
2021/01/10 07:36:53;349047.00;1.16;602.22;104161.00;0.35;180.75;;;;;3.90;1.00;;;;;;2265124;61;1130;-81
2021/01/10 07:39:25;11506.00;0.04;20.56;0.00;0.00;0.62;;;;;3.90;1.00;;;;;;2261221;61;1936;-84
2021/01/10 07:41:54;32179.00;0.11;56.35;0.00;0.00;0.62;;;;;3.40;1.00;;;;;;2264719;61;1471;-84
2021/01/10 07:44:21;27955.00;0.09;49.04;0.00;0.00;0.62;;;;;3.70;1.00;;;;;;2265172;61;1102;-83
2021/01/10 07:46:57;257554.00;0.86;444.94;42850.00;0.14;74.82;;;;;4.10;1.00;;;;;;2264986;61;1213;-83
2021/01/10 07:49:25;38849.00;0.13;67.90;0.00;0.00;0.62;;;;;4.50;1.00;;;;;;2265130;61;1377;-84
2021/01/10 07:51:52;131729.00;0.44;228.31;0.00;0.00;0.62;;;;;4.40;1.00;;;;;;2264955;61;1392;-84
2021/01/10 07:54:39;490813.00;1.64;846.01;93737.00;0.31;162.76;;;;;4.40;1.00;;;;;;2265070;61;1260;-84
2021/01/10 07:57:27;330078.00;1.10;569.62;97825.00;0.33;169.82;;;;;4.60;1.00;;;;;;2264720;61;1705;-84
2021/01/10 08:00:18;563348.00;1.88;970.97;89342.00;0.30;155.17;;;;;4.70;1.00;;;;;;2264949;61;1997;-83
2021/01/10 08:02:45;149753.00;0.50;259.38;0.00;0.00;0.62;;;;;3.90;1.00;;;;;;2260623;61;1409;-81
2021/01/10 08:05:15;52244.00;0.17;91.07;0.00;0.00;0.62;;;;;3.40;1.00;;;;;;2260647;61;1013;-83
2021/01/10 08:07:47;197727.00;0.66;342.01;0.00;0.00;0.62;;;;;3.20;1.00;;;;;;2256437;61;998;-82
2021/01/10 08:10:14;436380.00;1.45;752.36;0.00;0.00;0.62;;;;;3.10;1.00;;;;;;2256850;61;1134;-84
2021/01/10 08:12:41;365441.00;1.22;630.40;21460.00;0.07;37.80;;;;;2.80;1.00;;;;;;2250230;61;1351;-83
2021/01/10 08:15:08;263385.00;0.88;454.97;0.00;0.00;0.62;;;;;3.10;1.00;;;;;;2256745;61;1783;-82
2021/01/10 08:17:37;255555.00;0.85;441.50;0.00;0.00;0.62;;;;;3.30;1.00;;;;;;2255862;61;1133;-84
2021/01/10 08:20:05;270702.00;0.90;467.55;0.00;0.00;0.62;;;;;3.00;1.00;;;;;;2256387;61;2006;-83
2021/01/10 08:22:32;290681.00;0.97;501.90;0.00;0.00;0.62;;;;;2.70;1.00;;;;;;2252795;61;1461;-84
2021/01/10 08:24:59;129166.00;0.43;223.89;0.00;0.00;0.62;;;;;3.00;1.00;;;;;;2254213;61;1283;-82
2021/01/10 08:27:26;173693.00;0.58;300.63;0.00;0.00;0.62;;;;;3.00;1.00;;;;;;2260886;61;1305;-83
2021/01/10 08:29:53;366860.00;1.22;632.84;0.00;0.00;0.62;;;;;2.90;1.00;;;;;;2256785;61;1156;-83
2021/01/10 08:32:21;432779.00;1.44;746.16;0.00;0.00;0.62;;;;;2.80;1.00;;;;;;2248875;61;1473;-83
2021/01/10 08:34:49;550880.00;1.84;949.48;93069.00;0.31;161.61;;;;;2.70;1.00;;;;;;2248880;61;1164;-84
2021/01/10 08:37:20;463485.00;1.54;798.98;49337.00;0.16;86.04;;;;;2.50;1.00;;;;;;2237026;61;986;-84
2021/01/10 08:39:56;290630.00;0.97;501.81;0.00;0.00;0.62;;;;;2.20;1.00;;;;;;2238332;61;1925;-83
2021/01/10 08:42:23;97921.00;0.33;169.98;0.00;0.00;0.62;;;;;1.80;1.00;;;;;;2244648;61;1454;-80
2021/01/10 08:44:50;286513.00;0.96;494.73;0.00;0.00;0.62;;;;;2.20;1.00;;;;;;2241581;61;1133;-82
2021/01/10 08:47:17;258420.00;0.86;446.43;0.00;0.00;0.62;;;;;2.50;1.00;;;;;;2245779;61;1068;-84
2021/01/10 08:49:44;617382.00;2.06;1064.24;89677.00;0.30;155.75;;;;;2.60;1.00;;;;;;2246579;61;1046;-83
2021/01/10 08:52:12;451947.00;1.51;779.13;94626.00;0.32;164.29;;;;;2.70;1.00;;;;;;2252444;61;1295;-83
2021/01/10 08:54:38;569393.00;1.90;981.40;87356.00;0.29;151.74;;;;;2.60;1.00;;;;;;2255319;61;1294;-83
2021/01/10 08:57:05;293124.00;0.98;506.10;91516.00;0.31;158.93;;;;;2.40;1.00;;;;;;2252469;61;1001;-83
2021/01/10 08:59:39;11130.00;0.04;19.91;0.00;0.00;0.62;;;;;2.30;1.00;;;;;;2248430;61;1931;-82
2021/01/10 09:02:09;333683.00;1.11;575.82;0.00;0.00;0.62;;;;;2.50;1.00;;;;;;2243620;61;1359;-82
2021/01/10 09:04:43;44535.00;0.15;77.73;0.00;0.00;0.62;;;;;2.40;1.00;;;;;;2244234;62;998;-84
2021/01/10 09:07:22;39837.00;0.13;69.61;0.00;0.00;0.62;;;;;2.60;1.00;;;;;;2244406;61;1066;-83
2021/01/10 09:09:53;235903.00;0.79;407.70;98796.00;0.33;171.49;;;;;2.70;1.00;;;;;;2241524;61;1177;-80
2021/01/10 09:12:29;181804.00;0.61;314.60;84710.00;0.28;147.17;;;;;3.10;1.00;;;;;;2236863;62;1483;-82
2021/01/10 09:14:59;174917.00;0.58;302.74;96420.00;0.32;167.39;;;;;3.30;1.00;;;;;;2238440;61;1323;-84
2021/01/10 09:17:29;299607.00;1.00;517.24;98111.00;0.33;170.31;;;;;3.20;1.00;;;;;;2244513;61;1012;-84
2021/01/10 09:20:05;221475.00;0.74;382.88;99937.00;0.33;173.46;;;;;3.40;1.00;;;;;;2240706;61;2018;-84
2021/01/10 09:22:34;434935.00;1.45;749.87;110105.00;0.37;191.01;;;;;3.30;1.00;;;;;;2242531;61;1331;-83
2021/01/10 09:25:09;221931.00;0.74;383.67;84592.00;0.28;146.97;;;;;3.50;1.00;;;;;;2244811;61;1062;-83
2021/01/10 09:27:36;469733.00;1.57;809.73;95188.00;0.32;165.27;;;;;3.30;1.00;;;;;;2241649;61;1015;-84
2021/01/10 09:30:05;453126.00;1.51;781.16;99107.00;0.33;172.03;;;;;2.70;1.00;;;;;;2250749;61;962;-83
2021/01/10 09:32:33;419508.00;1.40;723.34;98783.00;0.33;171.47;;;;;2.60;1.00;;;;;;2248185;61;1322;-85
2021/01/10 09:35:01;434678.00;1.45;749.43;98070.00;0.33;170.24;;;;;3.10;1.00;;;;;;2248638;61;1136;-83
2021/01/10 09:37:29;557823.00;1.86;961.45;85977.00;0.29;149.36;;;;;3.50;1.00;;;;;;2242360;61;1152;-83
2021/01/10 09:40:07;399176.00;1.33;688.39;94872.00;0.32;164.72;;;;;3.80;1.00;;;;;;2259437;61;1952;-82
2021/01/10 09:42:48;409850.00;1.37;706.74;91045.00;0.30;158.11;;;;;4.30;1.00;;;;;;2248551;61;1390;-83
2021/01/10 09:45:16;467216.00;1.56;805.40;90854.00;0.30;157.78;;;;;4.60;1.00;;;;;;2248503;61;1017;-84
2021/01/10 09:47:43;288423.00;0.96;498.02;125719.00;0.42;217.95;;;;;4.40;1.00;;;;;;2236440;62;1076;-84
2021/01/10 09:50:13;0.00;0.00;0.62;0.00;0.00;0.62;;;;;4.20;1.00;;;;;;2233944;62;1130;-84
2021/01/10 09:52:46;88599.00;0.30;153.89;0.00;0.00;0.62;;;;;3.90;1.00;;;;;;2236719;62;1434;-83
2021/01/10 09:55:13;47531.00;0.16;82.92;0.00;0.00;0.62;;;;;3.60;1.00;;;;;;2230600;62;969;-83
2021/01/10 09:57:39;86970.00;0.29;151.08;0.00;0.00;0.62;;;;;3.20;1.00;;;;;;2236831;62;1058;-82
2021/01/10 10:00:13;29325.00;0.10;51.41;0.00;0.00;0.62;;;;;3.00;1.00;;;;;;2233706;61;2016;-83
2021/01/10 10:02:40;22033.00;0.07;38.79;0.00;0.00;0.62;;;;;2.70;1.00;;;;;;2236858;61;1347;-85
2021/01/10 10:05:16;51265.00;0.17;89.37;0.00;0.00;0.62;;;;;2.80;1.00;;;;;;2238990;61;1018;-85
2021/01/10 10:07:45;299262.00;1.00;516.65;90679.00;0.30;157.48;;;;;3.00;1.00;;;;;;2245819;61;1126;-80
2021/01/10 10:10:23;318026.00;1.06;548.91;94193.00;0.31;163.55;;;;;3.10;1.00;;;;;;2248495;61;1034;-83
2021/01/10 10:12:55;435513.00;1.45;750.87;93452.00;0.31;162.27;;;;;3.30;1.00;;;;;;2248510;61;1450;-80
2021/01/10 10:15:22;670015.00;2.23;1155.28;85815.00;0.29;149.08;;;;;3.30;1.00;;;;;;2247655;61;1001;-83